sensor_id;sensor_type;location;lat;lon;timestamp;P1;durP1;ratioP1;P2;durP2;ratioP2
5391;SDS011;2719;53.624;9.786;2022-11-11T00:01:57;8.13;;;3.00;;
5391;SDS011;2719;53.624;9.786;2022-11-11T00:04:24;6.80;;;1.53;;
5391;SDS011;2719;53.624;9.786;2022-11-11T00:06:52;6.53;;;1.60;;
5391;SDS011;2719;53.624;9.786;2022-11-11T00:09:18;9.10;;;1.50;;
5391;SDS011;2719;53.624;9.786;2022-11-11T00:11:45;7.10;;;1.50;;
5391;SDS011;2719;53.624;9.786;2022-11-11T00:14:12;13.03;;;1.70;;
5391;SDS011;2719;53.624;9.786;2022-11-11T00:16:40;7.70;;;2.10;;
5391;SDS011;2719;53.624;9.786;2022-11-11T00:19:20;6.43;;;1.97;;
5391;SDS011;2719;53.624;9.786;2022-11-11T00:22:06;14.13;;;2.90;;
5391;SDS011;2719;53.624;9.786;2022-11-11T00:25:01;11.90;;;2.60;;
5391;SDS011;2719;53.624;9.786;2022-11-11T00:27:31;7.23;;;1.80;;
5391;SDS011;2719;53.624;9.786;2022-11-11T00:29:58;9.60;;;1.90;;
5391;SDS011;2719;53.624;9.786;2022-11-11T00:32:26;18.07;;;3.10;;
5391;SDS011;2719;53.624;9.786;2022-11-11T00:34:55;14.13;;;2.67;;
5391;SDS011;2719;53.624;9.786;2022-11-11T00:37:41;5.77;;;1.63;;
5391;SDS011;2719;53.624;9.786;2022-11-11T00:40:09;13.20;;;2.30;;
5391;SDS011;2719;53.624;9.786;2022-11-11T00:42:37;11.30;;;2.67;;
5391;SDS011;2719;53.624;9.786;2022-11-11T00:45:04;7.10;;;1.90;;
5391;SDS011;2719;53.624;9.786;2022-11-11T00:47:33;14.53;;;1.70;;
5391;SDS011;2719;53.624;9.786;2022-11-11T00:50:17;13.80;;;2.20;;
5391;SDS011;2719;53.624;9.786;2022-11-11T00:53:06;9.30;;;1.80;;
5391;SDS011;2719;53.624;9.786;2022-11-11T00:55:34;5.10;;;1.63;;
5391;SDS011;2719;53.624;9.786;2022-11-11T00:58:01;5.13;;;2.00;;
5391;SDS011;2719;53.624;9.786;2022-11-11T01:00:28;13.90;;;2.40;;
5391;SDS011;2719;53.624;9.786;2022-11-11T01:02:56;8.47;;;1.60;;
5391;SDS011;2719;53.624;9.786;2022-11-11T01:05:22;13.33;;;2.07;;
5391;SDS011;2719;53.624;9.786;2022-11-11T01:07:49;10.67;;;1.70;;
5391;SDS011;2719;53.624;9.786;2022-11-11T01:10:16;12.13;;;2.60;;
5391;SDS011;2719;53.624;9.786;2022-11-11T01:13:02;8.20;;;2.43;;
5391;SDS011;2719;53.624;9.786;2022-11-11T01:15:38;10.20;;;2.77;;
5391;SDS011;2719;53.624;9.786;2022-11-11T01:18:07;5.23;;;1.30;;
5391;SDS011;2719;53.624;9.786;2022-11-11T01:20:34;16.30;;;1.77;;
5391;SDS011;2719;53.624;9.786;2022-11-11T01:23:01;10.00;;;1.90;;
5391;SDS011;2719;53.624;9.786;2022-11-11T01:25:28;11.47;;;1.93;;
5391;SDS011;2719;53.624;9.786;2022-11-11T01:27:57;11.00;;;3.30;;
5391;SDS011;2719;53.624;9.786;2022-11-11T01:30:24;18.77;;;2.00;;
5391;SDS011;2719;53.624;9.786;2022-11-11T01:32:50;6.60;;;1.53;;
5391;SDS011;2719;53.624;9.786;2022-11-11T01:35:18;3.90;;;1.23;;
5391;SDS011;2719;53.624;9.786;2022-11-11T01:37:45;9.10;;;2.07;;
5391;SDS011;2719;53.624;9.786;2022-11-11T01:40:12;17.50;;;1.60;;
5391;SDS011;2719;53.624;9.786;2022-11-11T01:42:45;9.27;;;2.33;;
5391;SDS011;2719;53.624;9.786;2022-11-11T01:48:13;11.47;;;2.10;;
5391;SDS011;2719;53.624;9.786;2022-11-11T01:51:04;11.20;;;2.37;;
5391;SDS011;2719;53.624;9.786;2022-11-11T01:53:37;7.33;;;1.93;;
5391;SDS011;2719;53.624;9.786;2022-11-11T01:56:04;9.70;;;2.27;;
5391;SDS011;2719;53.624;9.786;2022-11-11T01:58:33;6.47;;;1.63;;
5391;SDS011;2719;53.624;9.786;2022-11-11T02:01:00;11.63;;;1.70;;
5391;SDS011;2719;53.624;9.786;2022-11-11T02:03:28;16.40;;;2.30;;
5391;SDS011;2719;53.624;9.786;2022-11-11T02:05:58;8.27;;;1.07;;
5391;SDS011;2719;53.624;9.786;2022-11-11T02:08:27;11.10;;;1.83;;
5391;SDS011;2719;53.624;9.786;2022-11-11T02:10:58;6.83;;;1.73;;
5391;SDS011;2719;53.624;9.786;2022-11-11T02:13:27;17.03;;;2.20;;
5391;SDS011;2719;53.624;9.786;2022-11-11T02:16:12;17.43;;;2.43;;
5391;SDS011;2719;53.624;9.786;2022-11-11T02:18:39;15.93;;;2.90;;
5391;SDS011;2719;53.624;9.786;2022-11-11T02:21:07;14.30;;;2.63;;
5391;SDS011;2719;53.624;9.786;2022-11-11T02:23:40;11.80;;;2.50;;
5391;SDS011;2719;53.624;9.786;2022-11-11T02:26:13;7.10;;;1.40;;
5391;SDS011;2719;53.624;9.786;2022-11-11T02:28:42;12.03;;;2.00;;
5391;SDS011;2719;53.624;9.786;2022-11-11T02:31:10;12.50;;;2.40;;
5391;SDS011;2719;53.624;9.786;2022-11-11T02:33:37;9.53;;;1.87;;
5391;SDS011;2719;53.624;9.786;2022-11-11T02:36:04;9.50;;;2.27;;
5391;SDS011;2719;53.624;9.786;2022-11-11T02:38:34;14.50;;;2.10;;
5391;SDS011;2719;53.624;9.786;2022-11-11T02:41:01;7.13;;;2.03;;
5391;SDS011;2719;53.624;9.786;2022-11-11T02:43:47;9.63;;;1.90;;
5391;SDS011;2719;53.624;9.786;2022-11-11T02:46:14;13.90;;;1.77;;
5391;SDS011;2719;53.624;9.786;2022-11-11T02:48:40;8.03;;;1.63;;
5391;SDS011;2719;53.624;9.786;2022-11-11T02:51:07;17.27;;;2.50;;
5391;SDS011;2719;53.624;9.786;2022-11-11T02:53:34;8.90;;;2.00;;
5391;SDS011;2719;53.624;9.786;2022-11-11T02:56:01;12.37;;;2.23;;
5391;SDS011;2719;53.624;9.786;2022-11-11T02:58:27;7.10;;;1.97;;
5391;SDS011;2719;53.624;9.786;2022-11-11T03:00:55;5.13;;;2.40;;
5391;SDS011;2719;53.624;9.786;2022-11-11T03:03:22;7.20;;;1.80;;
5391;SDS011;2719;53.624;9.786;2022-11-11T03:05:49;5.10;;;1.47;;
5391;SDS011;2719;53.624;9.786;2022-11-11T03:08:16;9.73;;;1.90;;
5391;SDS011;2719;53.624;9.786;2022-11-11T03:10:43;6.70;;;2.10;;
5391;SDS011;2719;53.624;9.786;2022-11-11T03:13:10;8.43;;;1.60;;
5391;SDS011;2719;53.624;9.786;2022-11-11T03:15:36;9.43;;;2.13;;
5391;SDS011;2719;53.624;9.786;2022-11-11T03:18:04;9.67;;;2.50;;
5391;SDS011;2719;53.624;9.786;2022-11-11T03:20:30;9.30;;;2.97;;
5391;SDS011;2719;53.624;9.786;2022-11-11T03:23:14;9.90;;;2.60;;
5391;SDS011;2719;53.624;9.786;2022-11-11T03:25:42;5.20;;;1.77;;
5391;SDS011;2719;53.624;9.786;2022-11-11T03:28:11;8.43;;;2.00;;
5391;SDS011;2719;53.624;9.786;2022-11-11T03:30:39;8.67;;;1.83;;
5391;SDS011;2719;53.624;9.786;2022-11-11T03:33:08;15.53;;;2.50;;
5391;SDS011;2719;53.624;9.786;2022-11-11T03:35:35;6.30;;;2.37;;
5391;SDS011;2719;53.624;9.786;2022-11-11T03:38:02;10.80;;;1.80;;
5391;SDS011;2719;53.624;9.786;2022-11-11T03:40:47;11.83;;;2.90;;
5391;SDS011;2719;53.624;9.786;2022-11-11T03:43:16;10.70;;;2.23;;
5391;SDS011;2719;53.624;9.786;2022-11-11T03:45:43;7.80;;;1.67;;
5391;SDS011;2719;53.624;9.786;2022-11-11T03:48:12;14.60;;;2.20;;
5391;SDS011;2719;53.624;9.786;2022-11-11T03:50:39;6.67;;;2.10;;
5391;SDS011;2719;53.624;9.786;2022-11-11T03:53:06;12.03;;;3.10;;
5391;SDS011;2719;53.624;9.786;2022-11-11T03:55:33;5.07;;;1.67;;
5391;SDS011;2719;53.624;9.786;2022-11-11T03:57:59;7.77;;;1.90;;
5391;SDS011;2719;53.624;9.786;2022-11-11T04:00:27;8.93;;;2.07;;
5391;SDS011;2719;53.624;9.786;2022-11-11T04:03:00;7.70;;;2.30;;
5391;SDS011;2719;53.624;9.786;2022-11-11T04:05:46;20.13;;;4.30;;
5391;SDS011;2719;53.624;9.786;2022-11-11T04:08:30;9.03;;;2.80;;
5391;SDS011;2719;53.624;9.786;2022-11-11T04:11:16;10.03;;;2.60;;
5391;SDS011;2719;53.624;9.786;2022-11-11T04:13:47;16.30;;;3.20;;
5391;SDS011;2719;53.624;9.786;2022-11-11T04:16:32;8.67;;;2.67;;
5391;SDS011;2719;53.624;9.786;2022-11-11T04:18:58;11.27;;;1.80;;
5391;SDS011;2719;53.624;9.786;2022-11-11T04:21:44;8.50;;;2.60;;
5391;SDS011;2719;53.624;9.786;2022-11-11T04:24:12;5.13;;;1.93;;
5391;SDS011;2719;53.624;9.786;2022-11-11T04:27:13;8.73;;;2.30;;
5391;SDS011;2719;53.624;9.786;2022-11-11T04:29:41;5.47;;;3.07;;
5391;SDS011;2719;53.624;9.786;2022-11-11T04:32:07;7.83;;;3.10;;
5391;SDS011;2719;53.624;9.786;2022-11-11T04:34:54;10.63;;;2.67;;
5391;SDS011;2719;53.624;9.786;2022-11-11T04:37:23;5.27;;;2.20;;
5391;SDS011;2719;53.624;9.786;2022-11-11T04:39:52;10.37;;;1.87;;
5391;SDS011;2719;53.624;9.786;2022-11-11T04:42:36;12.43;;;2.47;;
5391;SDS011;2719;53.624;9.786;2022-11-11T04:45:03;8.53;;;2.20;;
5391;SDS011;2719;53.624;9.786;2022-11-11T04:47:52;9.87;;;2.67;;
5391;SDS011;2719;53.624;9.786;2022-11-11T04:50:19;11.73;;;3.50;;
5391;SDS011;2719;53.624;9.786;2022-11-11T04:52:47;9.20;;;2.13;;
5391;SDS011;2719;53.624;9.786;2022-11-11T04:55:14;5.90;;;2.90;;
5391;SDS011;2719;53.624;9.786;2022-11-11T04:57:59;11.63;;;2.67;;
5391;SDS011;2719;53.624;9.786;2022-11-11T05:00:26;11.43;;;2.93;;
5391;SDS011;2719;53.624;9.786;2022-11-11T05:02:53;12.47;;;3.10;;
5391;SDS011;2719;53.624;9.786;2022-11-11T05:05:37;9.13;;;3.43;;
5391;SDS011;2719;53.624;9.786;2022-11-11T05:08:19;4.80;;;2.80;;
5391;SDS011;2719;53.624;9.786;2022-11-11T05:11:09;5.20;;;1.83;;
5391;SDS011;2719;53.624;9.786;2022-11-11T05:13:36;11.73;;;2.83;;
5391;SDS011;2719;53.624;9.786;2022-11-11T05:16:22;12.03;;;2.70;;
5391;SDS011;2719;53.624;9.786;2022-11-11T05:19:09;6.13;;;2.60;;
5391;SDS011;2719;53.624;9.786;2022-11-11T05:21:54;6.57;;;2.60;;
5391;SDS011;2719;53.624;9.786;2022-11-11T05:24:26;6.67;;;1.80;;
5391;SDS011;2719;53.624;9.786;2022-11-11T05:27:11;8.30;;;3.50;;
5391;SDS011;2719;53.624;9.786;2022-11-11T05:29:38;16.20;;;2.80;;
5391;SDS011;2719;53.624;9.786;2022-11-11T05:32:06;10.50;;;3.03;;
5391;SDS011;2719;53.624;9.786;2022-11-11T05:34:33;8.80;;;2.80;;
5391;SDS011;2719;53.624;9.786;2022-11-11T05:36:59;9.90;;;2.33;;
5391;SDS011;2719;53.624;9.786;2022-11-11T05:39:27;12.20;;;3.33;;
5391;SDS011;2719;53.624;9.786;2022-11-11T05:41:54;5.97;;;2.30;;
5391;SDS011;2719;53.624;9.786;2022-11-11T05:44:21;7.53;;;2.80;;
5391;SDS011;2719;53.624;9.786;2022-11-11T05:46:47;9.50;;;2.93;;
5391;SDS011;2719;53.624;9.786;2022-11-11T05:49:14;5.93;;;2.50;;
5391;SDS011;2719;53.624;9.786;2022-11-11T05:51:41;9.30;;;2.83;;
5391;SDS011;2719;53.624;9.786;2022-11-11T05:54:08;10.20;;;3.50;;
5391;SDS011;2719;53.624;9.786;2022-11-11T05:56:36;9.70;;;3.07;;
5391;SDS011;2719;53.624;9.786;2022-11-11T05:59:02;7.10;;;3.37;;
5391;SDS011;2719;53.624;9.786;2022-11-11T06:01:29;9.30;;;2.63;;
5391;SDS011;2719;53.624;9.786;2022-11-11T06:03:56;5.33;;;2.50;;
5391;SDS011;2719;53.624;9.786;2022-11-11T06:06:23;8.90;;;2.70;;
5391;SDS011;2719;53.624;9.786;2022-11-11T06:08:50;8.83;;;2.70;;
5391;SDS011;2719;53.624;9.786;2022-11-11T06:11:16;15.73;;;3.67;;
5391;SDS011;2719;53.624;9.786;2022-11-11T06:13:44;8.90;;;3.93;;
5391;SDS011;2719;53.624;9.786;2022-11-11T06:16:11;11.17;;;3.20;;
5391;SDS011;2719;53.624;9.786;2022-11-11T06:18:38;7.67;;;3.10;;
5391;SDS011;2719;53.624;9.786;2022-11-11T06:21:04;13.57;;;3.13;;
5391;SDS011;2719;53.624;9.786;2022-11-11T06:23:31;11.53;;;4.03;;
5391;SDS011;2719;53.624;9.786;2022-11-11T06:25:58;12.83;;;3.10;;
5391;SDS011;2719;53.624;9.786;2022-11-11T06:28:41;7.93;;;3.53;;
5391;SDS011;2719;53.624;9.786;2022-11-11T06:31:12;12.47;;;5.30;;
5391;SDS011;2719;53.624;9.786;2022-11-11T06:33:40;7.53;;;3.60;;
5391;SDS011;2719;53.624;9.786;2022-11-11T06:36:08;16.60;;;4.10;;
5391;SDS011;2719;53.624;9.786;2022-11-11T06:38:35;11.80;;;3.90;;
5391;SDS011;2719;53.624;9.786;2022-11-11T06:41:02;10.63;;;4.10;;
5391;SDS011;2719;53.624;9.786;2022-11-11T06:43:29;16.43;;;4.27;;
5391;SDS011;2719;53.624;9.786;2022-11-11T06:45:55;16.37;;;4.50;;
5391;SDS011;2719;53.624;9.786;2022-11-11T06:48:24;16.37;;;4.60;;
5391;SDS011;2719;53.624;9.786;2022-11-11T06:50:51;18.07;;;5.37;;
5391;SDS011;2719;53.624;9.786;2022-11-11T06:53:19;9.50;;;4.60;;
5391;SDS011;2719;53.624;9.786;2022-11-11T06:55:46;12.50;;;5.13;;
5391;SDS011;2719;53.624;9.786;2022-11-11T06:58:17;21.60;;;5.50;;
5391;SDS011;2719;53.624;9.786;2022-11-11T07:00:45;17.33;;;6.57;;
5391;SDS011;2719;53.624;9.786;2022-11-11T07:03:14;14.90;;;6.27;;
5391;SDS011;2719;53.624;9.786;2022-11-11T07:05:44;15.57;;;7.70;;
5391;SDS011;2719;53.624;9.786;2022-11-11T07:08:11;18.03;;;5.50;;
5391;SDS011;2719;53.624;9.786;2022-11-11T07:10:42;13.13;;;5.67;;
5391;SDS011;2719;53.624;9.786;2022-11-11T07:13:10;18.50;;;5.50;;
5391;SDS011;2719;53.624;9.786;2022-11-11T07:15:37;25.53;;;7.03;;
5391;SDS011;2719;53.624;9.786;2022-11-11T07:18:04;20.20;;;5.93;;
5391;SDS011;2719;53.624;9.786;2022-11-11T07:20:31;17.13;;;5.50;;
5391;SDS011;2719;53.624;9.786;2022-11-11T07:22:59;21.47;;;6.70;;
5391;SDS011;2719;53.624;9.786;2022-11-11T07:25:25;18.80;;;6.67;;
5391;SDS011;2719;53.624;9.786;2022-11-11T07:27:52;17.93;;;6.30;;
5391;SDS011;2719;53.624;9.786;2022-11-11T07:30:19;14.33;;;6.13;;
5391;SDS011;2719;53.624;9.786;2022-11-11T07:32:46;14.93;;;7.30;;
5391;SDS011;2719;53.624;9.786;2022-11-11T07:35:14;18.00;;;7.00;;
5391;SDS011;2719;53.624;9.786;2022-11-11T07:37:41;15.13;;;6.13;;
5391;SDS011;2719;53.624;9.786;2022-11-11T07:40:11;14.87;;;6.97;;
5391;SDS011;2719;53.624;9.786;2022-11-11T07:42:39;11.37;;;5.97;;
5391;SDS011;2719;53.624;9.786;2022-11-11T07:45:07;20.17;;;7.03;;
5391;SDS011;2719;53.624;9.786;2022-11-11T07:47:35;16.47;;;6.30;;
5391;SDS011;2719;53.624;9.786;2022-11-11T07:50:03;14.60;;;7.30;;
5391;SDS011;2719;53.624;9.786;2022-11-11T07:52:31;22.57;;;9.00;;
5391;SDS011;2719;53.624;9.786;2022-11-11T07:54:58;16.70;;;6.13;;
5391;SDS011;2719;53.624;9.786;2022-11-11T07:57:26;11.47;;;6.63;;
5391;SDS011;2719;53.624;9.786;2022-11-11T07:59:53;23.30;;;7.03;;
5391;SDS011;2719;53.624;9.786;2022-11-11T08:02:19;16.33;;;6.77;;
5391;SDS011;2719;53.624;9.786;2022-11-11T08:04:46;14.20;;;8.13;;
5391;SDS011;2719;53.624;9.786;2022-11-11T08:07:13;19.17;;;7.77;;
5391;SDS011;2719;53.624;9.786;2022-11-11T08:09:39;18.67;;;7.50;;
5391;SDS011;2719;53.624;9.786;2022-11-11T08:12:07;15.90;;;6.70;;
5391;SDS011;2719;53.624;9.786;2022-11-11T08:14:53;23.43;;;10.30;;
5391;SDS011;2719;53.624;9.786;2022-11-11T08:17:20;20.27;;;8.50;;
5391;SDS011;2719;53.624;9.786;2022-11-11T08:19:46;33.43;;;9.70;;
5391;SDS011;2719;53.624;9.786;2022-11-11T08:22:13;18.27;;;7.70;;
5391;SDS011;2719;53.624;9.786;2022-11-11T08:24:40;21.03;;;7.20;;
5391;SDS011;2719;53.624;9.786;2022-11-11T08:27:06;29.17;;;10.60;;
5391;SDS011;2719;53.624;9.786;2022-11-11T08:29:34;19.40;;;10.07;;
5391;SDS011;2719;53.624;9.786;2022-11-11T08:32:02;15.13;;;8.10;;
5391;SDS011;2719;53.624;9.786;2022-11-11T08:34:29;20.23;;;8.50;;
5391;SDS011;2719;53.624;9.786;2022-11-11T08:36:56;23.73;;;8.60;;
5391;SDS011;2719;53.624;9.786;2022-11-11T08:39:22;19.17;;;9.00;;
5391;SDS011;2719;53.624;9.786;2022-11-11T08:41:49;20.37;;;8.80;;
5391;SDS011;2719;53.624;9.786;2022-11-11T08:44:16;21.83;;;7.40;;
5391;SDS011;2719;53.624;9.786;2022-11-11T08:46:42;32.00;;;7.70;;
5391;SDS011;2719;53.624;9.786;2022-11-11T08:49:10;28.37;;;9.10;;
5391;SDS011;2719;53.624;9.786;2022-11-11T08:51:37;31.33;;;9.17;;
5391;SDS011;2719;53.624;9.786;2022-11-11T08:54:04;28.00;;;9.17;;
5391;SDS011;2719;53.624;9.786;2022-11-11T08:56:31;19.57;;;9.17;;
5391;SDS011;2719;53.624;9.786;2022-11-11T08:58:57;23.53;;;10.43;;
5391;SDS011;2719;53.624;9.786;2022-11-11T09:01:24;18.93;;;8.37;;
5391;SDS011;2719;53.624;9.786;2022-11-11T09:03:51;23.27;;;8.50;;
5391;SDS011;2719;53.624;9.786;2022-11-11T09:06:19;19.27;;;8.30;;
5391;SDS011;2719;53.624;9.786;2022-11-11T09:08:45;18.93;;;6.97;;
5391;SDS011;2719;53.624;9.786;2022-11-11T09:11:12;31.77;;;8.30;;
5391;SDS011;2719;53.624;9.786;2022-11-11T09:13:39;19.33;;;9.30;;
5391;SDS011;2719;53.624;9.786;2022-11-11T09:16:06;23.50;;;9.60;;
5391;SDS011;2719;53.624;9.786;2022-11-11T09:18:34;20.83;;;8.37;;
5391;SDS011;2719;53.624;9.786;2022-11-11T09:21:00;40.00;;;10.53;;
5391;SDS011;2719;53.624;9.786;2022-11-11T09:23:29;23.13;;;9.13;;
5391;SDS011;2719;53.624;9.786;2022-11-11T09:25:58;27.10;;;9.30;;
5391;SDS011;2719;53.624;9.786;2022-11-11T09:28:28;26.20;;;11.20;;
5391;SDS011;2719;53.624;9.786;2022-11-11T09:30:55;20.50;;;9.67;;
5391;SDS011;2719;53.624;9.786;2022-11-11T09:33:24;19.27;;;9.00;;
5391;SDS011;2719;53.624;9.786;2022-11-11T09:35:50;19.63;;;9.63;;
5391;SDS011;2719;53.624;9.786;2022-11-11T09:38:17;24.17;;;8.00;;
5391;SDS011;2719;53.624;9.786;2022-11-11T09:40:48;19.50;;;9.10;;
5391;SDS011;2719;53.624;9.786;2022-11-11T09:43:25;19.97;;;9.90;;
5391;SDS011;2719;53.624;9.786;2022-11-11T09:46:04;15.70;;;8.33;;
5391;SDS011;2719;53.624;9.786;2022-11-11T09:48:42;25.53;;;10.20;;
5391;SDS011;2719;53.624;9.786;2022-11-11T09:51:20;22.17;;;8.60;;
5391;SDS011;2719;53.624;9.786;2022-11-11T09:53:51;16.97;;;9.60;;
5391;SDS011;2719;53.624;9.786;2022-11-11T09:56:21;14.10;;;8.17;;
5391;SDS011;2719;53.624;9.786;2022-11-11T09:58:50;17.83;;;8.53;;
5391;SDS011;2719;53.624;9.786;2022-11-11T10:01:22;23.83;;;8.97;;
5391;SDS011;2719;53.624;9.786;2022-11-11T10:03:53;21.87;;;8.70;;
5391;SDS011;2719;53.624;9.786;2022-11-11T10:06:25;18.83;;;7.63;;
5391;SDS011;2719;53.624;9.786;2022-11-11T10:08:56;25.50;;;8.20;;
5391;SDS011;2719;53.624;9.786;2022-11-11T10:11:31;15.20;;;7.93;;
5391;SDS011;2719;53.624;9.786;2022-11-11T10:14:08;16.50;;;7.97;;
5391;SDS011;2719;53.624;9.786;2022-11-11T10:16:36;19.90;;;8.03;;
5391;SDS011;2719;53.624;9.786;2022-11-11T10:19:17;15.80;;;8.30;;
5391;SDS011;2719;53.624;9.786;2022-11-11T10:21:52;16.33;;;7.10;;
5391;SDS011;2719;53.624;9.786;2022-11-11T10:24:24;17.40;;;8.17;;
5391;SDS011;2719;53.624;9.786;2022-11-11T10:26:55;20.97;;;8.07;;
5391;SDS011;2719;53.624;9.786;2022-11-11T10:29:26;25.27;;;8.67;;
5391;SDS011;2719;53.624;9.786;2022-11-11T10:32:01;20.43;;;7.63;;
5391;SDS011;2719;53.624;9.786;2022-11-11T10:34:32;26.37;;;7.73;;
5391;SDS011;2719;53.624;9.786;2022-11-11T10:36:59;17.93;;;7.70;;
5391;SDS011;2719;53.624;9.786;2022-11-11T10:39:29;17.07;;;8.00;;
5391;SDS011;2719;53.624;9.786;2022-11-11T10:42:17;20.20;;;9.80;;
5391;SDS011;2719;53.624;9.786;2022-11-11T10:44:43;25.63;;;9.20;;
5391;SDS011;2719;53.624;9.786;2022-11-11T10:47:11;16.67;;;9.07;;
5391;SDS011;2719;53.624;9.786;2022-11-11T10:49:47;19.47;;;8.83;;
5391;SDS011;2719;53.624;9.786;2022-11-11T10:52:19;21.90;;;8.37;;
5391;SDS011;2719;53.624;9.786;2022-11-11T10:54:49;21.03;;;10.10;;
5391;SDS011;2719;53.624;9.786;2022-11-11T10:57:27;23.07;;;9.07;;
5391;SDS011;2719;53.624;9.786;2022-11-11T11:00:01;23.93;;;8.90;;
5391;SDS011;2719;53.624;9.786;2022-11-11T11:02:33;23.30;;;9.53;;
5391;SDS011;2719;53.624;9.786;2022-11-11T11:05:07;17.37;;;9.60;;
5391;SDS011;2719;53.624;9.786;2022-11-11T11:07:39;35.93;;;9.23;;
5391;SDS011;2719;53.624;9.786;2022-11-11T11:10:11;20.17;;;8.23;;
5391;SDS011;2719;53.624;9.786;2022-11-11T11:12:44;19.70;;;8.67;;
5391;SDS011;2719;53.624;9.786;2022-11-11T11:15:18;32.23;;;10.17;;
5391;SDS011;2719;53.624;9.786;2022-11-11T11:17:50;16.00;;;8.10;;
5391;SDS011;2719;53.624;9.786;2022-11-11T11:20:20;22.20;;;8.57;;
5391;SDS011;2719;53.624;9.786;2022-11-11T11:22:48;24.60;;;9.40;;
5391;SDS011;2719;53.624;9.786;2022-11-11T11:25:17;19.20;;;8.10;;
5391;SDS011;2719;53.624;9.786;2022-11-11T11:27:45;14.30;;;8.67;;
5391;SDS011;2719;53.624;9.786;2022-11-11T11:30:15;21.13;;;8.57;;
5391;SDS011;2719;53.624;9.786;2022-11-11T11:32:54;14.67;;;8.40;;
5391;SDS011;2719;53.624;9.786;2022-11-11T11:35:30;15.43;;;8.20;;
5391;SDS011;2719;53.624;9.786;2022-11-11T11:37:59;17.80;;;8.10;;
5391;SDS011;2719;53.624;9.786;2022-11-11T11:40:25;20.13;;;8.57;;
5391;SDS011;2719;53.624;9.786;2022-11-11T11:42:54;21.30;;;8.63;;
5391;SDS011;2719;53.624;9.786;2022-11-11T11:45:22;16.80;;;8.47;;
5391;SDS011;2719;53.624;9.786;2022-11-11T11:47:52;17.10;;;8.20;;
5391;SDS011;2719;53.624;9.786;2022-11-11T11:50:36;23.80;;;8.23;;
5391;SDS011;2719;53.624;9.786;2022-11-11T11:53:12;23.03;;;9.60;;
5391;SDS011;2719;53.624;9.786;2022-11-11T11:55:51;24.40;;;8.67;;
5391;SDS011;2719;53.624;9.786;2022-11-11T11:58:27;14.13;;;8.73;;
5391;SDS011;2719;53.624;9.786;2022-11-11T12:01:03;14.63;;;8.10;;
5391;SDS011;2719;53.624;9.786;2022-11-11T12:03:52;21.73;;;9.20;;
5391;SDS011;2719;53.624;9.786;2022-11-11T12:06:35;12.47;;;7.40;;
5391;SDS011;2719;53.624;9.786;2022-11-11T12:09:12;19.30;;;9.20;;
5391;SDS011;2719;53.624;9.786;2022-11-11T12:11:49;18.40;;;9.67;;
5391;SDS011;2719;53.624;9.786;2022-11-11T12:14:28;19.97;;;9.13;;
5391;SDS011;2719;53.624;9.786;2022-11-11T12:17:21;14.40;;;8.30;;
5391;SDS011;2719;53.624;9.786;2022-11-11T12:19:57;20.47;;;8.93;;
5391;SDS011;2719;53.624;9.786;2022-11-11T12:22:33;16.17;;;7.90;;
5391;SDS011;2719;53.624;9.786;2022-11-11T12:25:13;18.73;;;9.03;;
5391;SDS011;2719;53.624;9.786;2022-11-11T12:27:47;16.00;;;8.60;;
5391;SDS011;2719;53.624;9.786;2022-11-11T12:30:22;23.30;;;8.40;;
5391;SDS011;2719;53.624;9.786;2022-11-11T12:33:08;18.10;;;9.33;;
5391;SDS011;2719;53.624;9.786;2022-11-11T12:35:58;17.53;;;7.97;;
5391;SDS011;2719;53.624;9.786;2022-11-11T12:41:19;17.30;;;8.17;;
5391;SDS011;2719;53.624;9.786;2022-11-11T12:43:53;18.20;;;8.80;;
5391;SDS011;2719;53.624;9.786;2022-11-11T12:46:28;15.63;;;8.80;;
5391;SDS011;2719;53.624;9.786;2022-11-11T12:49:08;19.87;;;8.30;;
5391;SDS011;2719;53.624;9.786;2022-11-11T12:51:50;13.40;;;8.27;;
5391;SDS011;2719;53.624;9.786;2022-11-11T12:54:25;16.20;;;9.17;;
5391;SDS011;2719;53.624;9.786;2022-11-11T12:57:00;22.13;;;7.70;;
5391;SDS011;2719;53.624;9.786;2022-11-11T12:59:35;21.00;;;8.63;;
5391;SDS011;2719;53.624;9.786;2022-11-11T13:02:29;20.60;;;8.50;;
5391;SDS011;2719;53.624;9.786;2022-11-11T13:05:18;26.40;;;9.17;;
5391;SDS011;2719;53.624;9.786;2022-11-11T13:11:08;16.50;;;7.60;;
5391;SDS011;2719;53.624;9.786;2022-11-11T13:13:46;22.93;;;7.27;;
5391;SDS011;2719;53.624;9.786;2022-11-11T13:16:22;16.70;;;7.83;;
5391;SDS011;2719;53.624;9.786;2022-11-11T13:18:54;30.30;;;9.30;;
5391;SDS011;2719;53.624;9.786;2022-11-11T13:21:25;14.70;;;7.13;;
5391;SDS011;2719;53.624;9.786;2022-11-11T13:23:56;14.00;;;7.87;;
5391;SDS011;2719;53.624;9.786;2022-11-11T13:26:27;15.90;;;7.00;;
5391;SDS011;2719;53.624;9.786;2022-11-11T13:29:03;13.97;;;7.30;;
5391;SDS011;2719;53.624;9.786;2022-11-11T13:31:43;15.27;;;8.73;;
5391;SDS011;2719;53.624;9.786;2022-11-11T13:34:12;15.53;;;6.33;;
5391;SDS011;2719;53.624;9.786;2022-11-11T13:36:42;14.83;;;7.13;;
5391;SDS011;2719;53.624;9.786;2022-11-11T13:39:21;18.57;;;7.23;;
5391;SDS011;2719;53.624;9.786;2022-11-11T13:41:52;9.93;;;6.10;;
5391;SDS011;2719;53.624;9.786;2022-11-11T13:44:21;13.53;;;7.30;;
5391;SDS011;2719;53.624;9.786;2022-11-11T13:46:50;18.23;;;6.50;;
5391;SDS011;2719;53.624;9.786;2022-11-11T13:49:25;13.73;;;7.33;;
5391;SDS011;2719;53.624;9.786;2022-11-11T13:51:57;11.77;;;6.87;;
5391;SDS011;2719;53.624;9.786;2022-11-11T13:54:26;12.60;;;6.10;;
5391;SDS011;2719;53.624;9.786;2022-11-11T13:57:00;13.30;;;6.50;;
5391;SDS011;2719;53.624;9.786;2022-11-11T13:59:31;11.20;;;5.77;;
5391;SDS011;2719;53.624;9.786;2022-11-11T14:02:24;14.10;;;6.80;;
5391;SDS011;2719;53.624;9.786;2022-11-11T14:05:14;12.80;;;5.53;;
5391;SDS011;2719;53.624;9.786;2022-11-11T14:07:47;15.87;;;6.20;;
5391;SDS011;2719;53.624;9.786;2022-11-11T14:16:09;10.43;;;5.33;;
5391;SDS011;2719;53.624;9.786;2022-11-11T14:18:43;18.03;;;5.40;;
5391;SDS011;2719;53.624;9.786;2022-11-11T14:21:11;13.40;;;6.80;;
5391;SDS011;2719;53.624;9.786;2022-11-11T14:24:08;15.30;;;5.73;;
5391;SDS011;2719;53.624;9.786;2022-11-11T14:26:36;16.13;;;5.67;;
5391;SDS011;2719;53.624;9.786;2022-11-11T14:29:03;12.57;;;5.93;;
5391;SDS011;2719;53.624;9.786;2022-11-11T14:34:30;12.23;;;5.13;;
5391;SDS011;2719;53.624;9.786;2022-11-11T14:37:19;12.33;;;5.93;;
5391;SDS011;2719;53.624;9.786;2022-11-11T14:39:55;12.70;;;5.70;;
5391;SDS011;2719;53.624;9.786;2022-11-11T14:42:41;12.43;;;5.83;;
5391;SDS011;2719;53.624;9.786;2022-11-11T14:51:37;11.07;;;5.27;;
5391;SDS011;2719;53.624;9.786;2022-11-11T14:57:09;8.47;;;4.70;;
5391;SDS011;2719;53.624;9.786;2022-11-11T14:59:46;24.27;;;6.30;;
5391;SDS011;2719;53.624;9.786;2022-11-11T15:02:24;8.10;;;5.37;;
5391;SDS011;2719;53.624;9.786;2022-11-11T15:04:56;11.47;;;5.40;;
5391;SDS011;2719;53.624;9.786;2022-11-11T15:07:27;15.63;;;6.20;;
5391;SDS011;2719;53.624;9.786;2022-11-11T15:13:15;15.33;;;6.20;;
5391;SDS011;2719;53.624;9.786;2022-11-11T15:15:59;21.17;;;5.67;;
5391;SDS011;2719;53.624;9.786;2022-11-11T15:18:43;8.83;;;3.80;;
5391;SDS011;2719;53.624;9.786;2022-11-11T15:21:19;13.90;;;4.80;;
5391;SDS011;2719;53.624;9.786;2022-11-11T15:23:56;10.60;;;5.13;;
5391;SDS011;2719;53.624;9.786;2022-11-11T15:26:33;11.27;;;4.80;;
5391;SDS011;2719;53.624;9.786;2022-11-11T15:32:15;7.23;;;4.40;;
5391;SDS011;2719;53.624;9.786;2022-11-11T15:34:49;7.23;;;4.30;;
5391;SDS011;2719;53.624;9.786;2022-11-11T15:37:21;9.23;;;5.00;;
5391;SDS011;2719;53.624;9.786;2022-11-11T15:39:52;19.60;;;6.70;;
5391;SDS011;2719;53.624;9.786;2022-11-11T15:42:24;10.60;;;4.87;;
5391;SDS011;2719;53.624;9.786;2022-11-11T15:44:54;12.60;;;5.50;;
5391;SDS011;2719;53.624;9.786;2022-11-11T15:47:24;13.00;;;6.27;;
5391;SDS011;2719;53.624;9.786;2022-11-11T15:49:51;13.57;;;4.80;;
5391;SDS011;2719;53.624;9.786;2022-11-11T15:52:23;12.37;;;5.57;;
5391;SDS011;2719;53.624;9.786;2022-11-11T15:54:52;9.40;;;5.30;;
5391;SDS011;2719;53.624;9.786;2022-11-11T15:57:30;11.50;;;5.23;;
5391;SDS011;2719;53.624;9.786;2022-11-11T16:00:01;9.57;;;5.00;;
5391;SDS011;2719;53.624;9.786;2022-11-11T16:02:44;10.70;;;4.10;;
5391;SDS011;2719;53.624;9.786;2022-11-11T16:05:13;14.20;;;5.93;;
5391;SDS011;2719;53.624;9.786;2022-11-11T16:07:43;10.53;;;5.70;;